sensor_id;sensor_type;location;lat;lon;timestamp;pressure;altitude;pressure_sealevel;temperature;humidity
16094;BME280;8151;47.824;12.092;2023-08-08T00:00:06;96561.44;;;13.79;71.67
16094;BME280;8151;47.824;12.092;2023-08-08T00:02:35;96556.88;;;13.73;71.56
16094;BME280;8151;47.824;12.092;2023-08-08T00:05:04;96561.72;;;13.70;71.74
16094;BME280;8151;47.824;12.092;2023-08-08T00:07:35;96559.63;;;13.65;71.63
16094;BME280;8151;47.824;12.092;2023-08-08T00:10:04;96557.31;;;13.62;72.11
16094;BME280;8151;47.824;12.092;2023-08-08T00:12:33;96553.53;;;13.56;71.99
16094;BME280;8151;47.824;12.092;2023-08-08T00:15:01;96561.69;;;13.55;72.21
16094;BME280;8151;47.824;12.092;2023-08-08T00:17:29;96559.03;;;13.55;71.92
16094;BME280;8151;47.824;12.092;2023-08-08T00:20:04;96561.91;;;13.53;72.09
16094;BME280;8151;47.824;12.092;2023-08-08T00:22:35;96558.78;;;13.50;71.83
16094;BME280;8151;47.824;12.092;2023-08-08T00:25:04;96553.63;;;13.48;72.03
16094;BME280;8151;47.824;12.092;2023-08-08T00:27:32;96557.50;;;13.46;71.92
16094;BME280;8151;47.824;12.092;2023-08-08T00:30:01;96556.66;;;13.45;72.21
16094;BME280;8151;47.824;12.092;2023-08-08T00:32:29;96557.66;;;13.44;72.02
16094;BME280;8151;47.824;12.092;2023-08-08T00:34:58;96554.19;;;13.44;72.14
16094;BME280;8151;47.824;12.092;2023-08-08T00:37:26;96552.34;;;13.44;72.73
16094;BME280;8151;47.824;12.092;2023-08-08T00:39:56;96546.00;;;13.45;72.39
16094;BME280;8151;47.824;12.092;2023-08-08T00:42:25;96545.84;;;13.47;72.26
16094;BME280;8151;47.824;12.092;2023-08-08T00:44:53;96540.53;;;13.47;72.13
16094;BME280;8151;47.824;12.092;2023-08-08T00:47:21;96540.53;;;13.47;72.21
16094;BME280;8151;47.824;12.092;2023-08-08T00:49:50;96538.03;;;13.45;72.29
16094;BME280;8151;47.824;12.092;2023-08-08T00:52:19;96528.44;;;13.44;72.18
16094;BME280;8151;47.824;12.092;2023-08-08T00:54:47;96536.41;;;13.44;72.37
16094;BME280;8151;47.824;12.092;2023-08-08T00:57:17;96527.78;;;13.42;72.46
16094;BME280;8151;47.824;12.092;2023-08-08T00:59:46;96526.13;;;13.41;72.25
16094;BME280;8151;47.824;12.092;2023-08-08T01:02:15;96526.31;;;13.39;72.46
16094;BME280;8151;47.824;12.092;2023-08-08T01:04:43;96525.31;;;13.41;72.50
16094;BME280;8151;47.824;12.092;2023-08-08T01:07:17;96529.81;;;13.40;72.34
16094;BME280;8151;47.824;12.092;2023-08-08T01:09:54;96526.50;;;13.38;72.54
16094;BME280;8151;47.824;12.092;2023-08-08T01:12:25;96521.19;;;13.38;72.54
16094;BME280;8151;47.824;12.092;2023-08-08T01:14:54;96519.53;;;13.37;72.36
16094;BME280;8151;47.824;12.092;2023-08-08T01:17:24;96518.72;;;13.36;72.46
16094;BME280;8151;47.824;12.092;2023-08-08T01:19:53;96506.41;;;13.35;72.40
16094;BME280;8151;47.824;12.092;2023-08-08T01:22:27;96507.63;;;13.33;72.69
16094;BME280;8151;47.824;12.092;2023-08-08T01:24:59;96496.97;;;13.33;72.39
16094;BME280;8151;47.824;12.092;2023-08-08T01:27:29;96504.78;;;13.34;72.51
16094;BME280;8151;47.824;12.092;2023-08-08T01:29:57;96491.66;;;13.33;72.84
16094;BME280;8151;47.824;12.092;2023-08-08T01:32:26;96491.66;;;13.33;72.70
16094;BME280;8151;47.824;12.092;2023-08-08T01:34:54;96498.00;;;13.32;73.02
16094;BME280;8151;47.824;12.092;2023-08-08T01:37:29;96494.50;;;13.31;72.72
16094;BME280;8151;47.824;12.092;2023-08-08T01:40:01;96487.38;;;13.32;72.81
16094;BME280;8151;47.824;12.092;2023-08-08T01:42:30;96496.97;;;13.33;72.77
16094;BME280;8151;47.824;12.092;2023-08-08T01:44:59;96487.38;;;13.32;72.88
16094;BME280;8151;47.824;12.092;2023-08-08T01:47:27;96492.69;;;13.32;72.83
16094;BME280;8151;47.824;12.092;2023-08-08T01:49:56;96492.69;;;13.32;72.98
16094;BME280;8151;47.824;12.092;2023-08-08T01:52:24;96488.19;;;13.32;72.88
16094;BME280;8151;47.824;12.092;2023-08-08T01:54:52;96485.16;;;13.35;72.91
16094;BME280;8151;47.824;12.092;2023-08-08T01:57:22;96481.31;;;13.38;72.89
16094;BME280;8151;47.824;12.092;2023-08-08T01:59:51;96481.31;;;13.38;72.77
16094;BME280;8151;47.824;12.092;2023-08-08T02:02:19;96483.78;;;13.39;72.72
16094;BME280;8151;47.824;12.092;2023-08-08T02:04:48;96476.00;;;13.38;72.90
16094;BME280;8151;47.824;12.092;2023-08-08T02:07:16;96476.00;;;13.38;72.64
16094;BME280;8151;47.824;12.092;2023-08-08T02:09:45;96473.53;;;13.36;72.62
16094;BME280;8151;47.824;12.092;2023-08-08T02:12:13;96471.03;;;13.35;72.75
16094;BME280;8151;47.824;12.092;2023-08-08T02:14:43;96468.22;;;13.36;72.39
16094;BME280;8151;47.824;12.092;2023-08-08T02:17:22;96470.88;;;13.36;72.52
16094;BME280;8151;47.824;12.092;2023-08-08T02:20:00;96477.81;;;13.37;72.64
16094;BME280;8151;47.824;12.092;2023-08-08T02:22:30;96473.34;;;13.38;72.60
16094;BME280;8151;47.824;12.092;2023-08-08T02:24:59;96473.16;;;13.39;72.59
16094;BME280;8151;47.824;12.092;2023-08-08T02:27:27;96473.34;;;13.38;72.49
16094;BME280;8151;47.824;12.092;2023-08-08T02:29:57;96477.00;;;13.37;72.49
16094;BME280;8151;47.824;12.092;2023-08-08T02:32:25;96476.19;;;13.36;72.65
16094;BME280;8151;47.824;12.092;2023-08-08T02:34:54;96471.88;;;13.35;72.77
16094;BME280;8151;47.824;12.092;2023-08-08T02:37:22;96466.75;;;13.34;72.57
16094;BME280;8151;47.824;12.092;2023-08-08T02:39:51;96475.72;;;13.33;72.63
16094;BME280;8151;47.824;12.092;2023-08-08T02:42:19;96475.09;;;13.31;72.59
16094;BME280;8151;47.824;12.092;2023-08-08T02:44:48;96477.75;;;13.31;72.64
16094;BME280;8151;47.824;12.092;2023-08-08T02:47:17;96478.56;;;13.31;72.77
16094;BME280;8151;47.824;12.092;2023-08-08T02:49:46;96479.56;;;13.30;72.81
16094;BME280;8151;47.824;12.092;2023-08-08T02:52:14;96477.06;;;13.29;72.75
16094;BME280;8151;47.824;12.092;2023-08-08T02:54:43;96480.41;;;13.31;72.90
16094;BME280;8151;47.824;12.092;2023-08-08T02:57:11;96478.72;;;13.30;72.75
16094;BME280;8151;47.824;12.092;2023-08-08T02:59:40;96477.41;;;13.26;73.10
16094;BME280;8151;47.824;12.092;2023-08-08T03:02:08;96476.94;;;13.22;73.13
16094;BME280;8151;47.824;12.092;2023-08-08T03:04:38;96483.13;;;13.23;73.26
16094;BME280;8151;47.824;12.092;2023-08-08T03:07:07;96483.94;;;13.23;73.04
16094;BME280;8151;47.824;12.092;2023-08-08T03:09:35;96477.81;;;13.23;73.09
16094;BME280;8151;47.824;12.092;2023-08-08T03:12:04;96483.28;;;13.21;73.06
16094;BME280;8151;47.824;12.092;2023-08-08T03:14:33;96489.41;;;13.22;73.20
16094;BME280;8151;47.824;12.092;2023-08-08T03:17:02;96481.63;;;13.20;73.08
16094;BME280;8151;47.824;12.092;2023-08-08T03:19:30;96481.19;;;13.16;73.13
16094;BME280;8151;47.824;12.092;2023-08-08T03:22:00;96481.38;;;13.15;73.35
16094;BME280;8151;47.824;12.092;2023-08-08T03:24:29;96478.88;;;13.13;73.16
16094;BME280;8151;47.824;12.092;2023-08-08T03:26:57;96482.53;;;13.12;73.47
16094;BME280;8151;47.824;12.092;2023-08-08T03:29:26;96475.59;;;13.11;73.52
16094;BME280;8151;47.824;12.092;2023-08-08T03:31:54;96484.53;;;13.10;73.63
16094;BME280;8151;47.824;12.092;2023-08-08T03:34:23;96483.91;;;13.08;73.68
16094;BME280;8151;47.824;12.092;2023-08-08T03:36:51;96487.59;;;13.07;73.74
16094;BME280;8151;47.824;12.092;2023-08-08T03:39:21;96485.91;;;13.06;73.84
16094;BME280;8151;47.824;12.092;2023-08-08T03:41:50;96480.59;;;13.06;73.70
16094;BME280;8151;47.824;12.092;2023-08-08T03:44:18;96477.13;;;13.06;73.68
16094;BME280;8151;47.824;12.092;2023-08-08T03:46:47;96481.63;;;13.05;73.71
16094;BME280;8151;47.824;12.092;2023-08-08T03:49:18;96479.97;;;13.04;73.50
16094;BME280;8151;47.824;12.092;2023-08-08T03:51:47;96480.13;;;13.03;73.66
16094;BME280;8151;47.824;12.092;2023-08-08T03:54:17;96484.00;;;13.00;73.75
16094;BME280;8151;47.824;12.092;2023-08-08T03:56:47;96478.84;;;12.98;73.66
16094;BME280;8151;47.824;12.092;2023-08-08T03:59:19;96481.50;;;12.98;73.63
16094;BME280;8151;47.824;12.092;2023-08-08T04:01:47;96482.34;;;12.99;73.69
16094;BME280;8151;47.824;12.092;2023-08-08T04:04:16;96492.97;;;12.99;73.73
16094;BME280;8151;47.824;12.092;2023-08-08T04:06:44;96487.66;;;12.99;73.64
16094;BME280;8151;47.824;12.092;2023-08-08T04:09:12;96489.31;;;13.00;73.59
16094;BME280;8151;47.824;12.092;2023-08-08T04:11:41;96492.78;;;13.00;73.61
16094;BME280;8151;47.824;12.092;2023-08-08T04:14:11;96499.75;;;13.02;73.54
16094;BME280;8151;47.824;12.092;2023-08-08T04:16:39;96501.22;;;13.04;73.71
16094;BME280;8151;47.824;12.092;2023-08-08T04:19:08;96493.41;;;13.03;73.38
16094;BME280;8151;47.824;12.092;2023-08-08T04:21:36;96505.06;;;13.02;73.38
16094;BME280;8151;47.824;12.092;2023-08-08T04:24:05;96508.72;;;13.00;73.47
16094;BME280;8151;47.824;12.092;2023-08-08T04:26:34;96497.09;;;13.02;73.63
16094;BME280;8151;47.824;12.092;2023-08-08T04:29:03;96492.59;;;13.02;73.56
16094;BME280;8151;47.824;12.092;2023-08-08T04:31:33;96499.56;;;13.03;73.56
16094;BME280;8151;47.824;12.092;2023-08-08T04:34:01;96512.84;;;13.03;73.66
16094;BME280;8151;47.824;12.092;2023-08-08T04:36:30;96499.56;;;13.03;73.69
16094;BME280;8151;47.824;12.092;2023-08-08T04:38:58;96495.09;;;13.04;73.52
16094;BME280;8151;47.824;12.092;2023-08-08T04:41:27;96497.56;;;13.05;73.32
16094;BME280;8151;47.824;12.092;2023-08-08T04:43:55;96506.19;;;13.07;73.44
16094;BME280;8151;47.824;12.092;2023-08-08T04:46:23;96504.34;;;13.08;73.37
16094;BME280;8151;47.824;12.092;2023-08-08T04:48:53;96506.19;;;13.07;73.17
16094;BME280;8151;47.824;12.092;2023-08-08T04:51:23;96499.84;;;13.08;73.18
16094;BME280;8151;47.824;12.092;2023-08-08T04:53:51;96498.84;;;13.09;73.28
16094;BME280;8151;47.824;12.092;2023-08-08T04:56:20;96500.88;;;13.07;73.18
16094;BME280;8151;47.824;12.092;2023-08-08T04:58:48;96502.69;;;13.07;73.14
16094;BME280;8151;47.824;12.092;2023-08-08T05:01:17;96503.88;;;13.04;73.24
16094;BME280;8151;47.824;12.092;2023-08-08T05:03:47;96502.41;;;13.02;73.15
16094;BME280;8151;47.824;12.092;2023-08-08T05:06:26;96505.72;;;13.04;73.22
16094;BME280;8151;47.824;12.092;2023-08-08T05:08:55;96517.78;;;13.06;73.40
16094;BME280;8151;47.824;12.092;2023-08-08T05:11:24;96516.63;;;13.09;73.21
16094;BME280;8151;47.824;12.092;2023-08-08T05:13:52;96516.25;;;13.12;73.12
16094;BME280;8151;47.824;12.092;2023-08-08T05:16:20;96520.19;;;13.16;73.06
16094;BME280;8151;47.824;12.092;2023-08-08T05:18:50;96516.38;;;13.18;72.93
16094;BME280;8151;47.824;12.092;2023-08-08T05:21:19;96515.19;;;13.21;72.90
16094;BME280;8151;47.824;12.092;2023-08-08T05:23:49;96520.31;;;13.23;72.91
16094;BME280;8151;47.824;12.092;2023-08-08T05:26:18;96526.28;;;13.25;72.99
16094;BME280;8151;47.824;12.092;2023-08-08T05:28:46;96521.94;;;13.24;73.01
16094;BME280;8151;47.824;12.092;2023-08-08T05:31:15;96534.97;;;13.18;73.03
16094;BME280;8151;47.824;12.092;2023-08-08T05:33:43;96529.19;;;13.15;73.01
16094;BME280;8151;47.824;12.092;2023-08-08T05:36:11;96536.69;;;13.11;73.31
16094;BME280;8151;47.824;12.092;2023-08-08T05:38:40;96526.63;;;13.07;73.41
16094;BME280;8151;47.824;12.092;2023-08-08T05:41:10;96530.09;;;13.07;73.34
16094;BME280;8151;47.824;12.092;2023-08-08T05:43:38;96530.09;;;13.07;73.24
16094;BME280;8151;47.824;12.092;2023-08-08T05:46:07;96525.75;;;13.06;73.18
16094;BME280;8151;47.824;12.092;2023-08-08T05:48:36;96518.81;;;13.05;73.09
16094;BME280;8151;47.824;12.092;2023-08-08T05:51:04;96520.44;;;13.06;73.12
16094;BME280;8151;47.824;12.092;2023-08-08T05:53:33;96518.44;;;13.08;72.98
16094;BME280;8151;47.824;12.092;2023-08-08T05:56:01;96513.75;;;13.10;72.88
16094;BME280;8151;47.824;12.092;2023-08-08T05:58:31;96514.25;;;13.14;72.82
16094;BME280;8151;47.824;12.092;2023-08-08T06:01:00;96520.84;;;13.18;72.53
16094;BME280;8151;47.824;12.092;2023-08-08T06:03:28;96518.66;;;13.22;72.56
16094;BME280;8151;47.824;12.092;2023-08-08T06:05:57;96518.47;;;13.23;72.41
16094;BME280;8151;47.824;12.092;2023-08-08T06:08:25;96518.66;;;13.22;72.48
16094;BME280;8151;47.824;12.092;2023-08-08T06:10:54;96518.66;;;13.22;72.16
16094;BME280;8151;47.824;12.092;2023-08-08T06:13:22;96518.66;;;13.22;72.36
16094;BME280;8151;47.824;12.092;2023-08-08T06:15:52;96515.81;;;13.23;72.28
16094;BME280;8151;47.824;12.092;2023-08-08T06:18:21;96521.59;;;13.27;72.21
16094;BME280;8151;47.824;12.092;2023-08-08T06:20:49;96515.09;;;13.29;72.15
16094;BME280;8151;47.824;12.092;2023-08-08T06:23:18;96512.94;;;13.33;71.98
16094;BME280;8151;47.824;12.092;2023-08-08T06:25:46;96512.03;;;13.41;71.96
16094;BME280;8151;47.824;12.092;2023-08-08T06:28:15;96506.78;;;13.47;71.63
16094;BME280;8151;47.824;12.092;2023-08-08T06:30:44;96517.88;;;13.51;71.79
16094;BME280;8151;47.824;12.092;2023-08-08T06:33:14;96507.06;;;13.52;71.59
16094;BME280;8151;47.824;12.092;2023-08-08T06:35:42;96495.88;;;13.57;71.66
16094;BME280;8151;47.824;12.092;2023-08-08T06:38:11;96515.41;;;13.64;71.45
16094;BME280;8151;47.824;12.092;2023-08-08T06:40:46;96519.16;;;13.70;71.35
16094;BME280;8151;47.824;12.092;2023-08-08T06:43:16;96513.97;;;13.76;71.42
16094;BME280;8151;47.824;12.092;2023-08-08T06:45:44;96516.50;;;13.85;71.35
16094;BME280;8151;47.824;12.092;2023-08-08T06:48:14;96518.88;;;13.94;71.22
16094;BME280;8151;47.824;12.092;2023-08-08T06:50:43;96507.97;;;14.04;71.02
16094;BME280;8151;47.824;12.092;2023-08-08T06:53:12;96513.97;;;14.13;70.71
16094;BME280;8151;47.824;12.092;2023-08-08T06:55:40;96511.22;;;14.21;70.54
16094;BME280;8151;47.824;12.092;2023-08-08T06:58:09;96509.44;;;14.28;70.59
16094;BME280;8151;47.824;12.092;2023-08-08T07:00:37;96508.91;;;14.33;70.51
16094;BME280;8151;47.824;12.092;2023-08-08T07:03:06;96511.16;;;14.36;70.26
16094;BME280;8151;47.824;12.092;2023-08-08T07:05:36;96511.16;;;14.36;70.13
16094;BME280;8151;47.824;12.092;2023-08-08T07:08:06;96516.69;;;14.34;70.50
16094;BME280;8151;47.824;12.092;2023-08-08T07:10:36;96505.41;;;14.32;70.33
16094;BME280;8151;47.824;12.092;2023-08-08T07:13:04;96508.50;;;14.36;70.17
16094;BME280;8151;47.824;12.092;2023-08-08T07:15:33;96507.56;;;14.44;70.20
16094;BME280;8151;47.824;12.092;2023-08-08T07:18:02;96507.03;;;14.48;69.85
16094;BME280;8151;47.824;12.092;2023-08-08T07:20:30;96501.94;;;14.53;69.58
16094;BME280;8151;47.824;12.092;2023-08-08T07:23:02;96499.56;;;14.59;69.78
16094;BME280;8151;47.824;12.092;2023-08-08T07:25:31;96510.28;;;14.65;69.68
16094;BME280;8151;47.824;12.092;2023-08-08T07:27:59;96510.09;;;14.67;69.36
16094;BME280;8151;47.824;12.092;2023-08-08T07:30:28;96503.34;;;14.71;69.61
16094;BME280;8151;47.824;12.092;2023-08-08T07:32:56;96493.97;;;14.75;69.15
16094;BME280;8151;47.824;12.092;2023-08-08T07:35:25;96493.22;;;14.81;69.24
16094;BME280;8151;47.824;12.092;2023-08-08T07:37:58;96495.94;;;14.88;69.20
16094;BME280;8151;47.824;12.092;2023-08-08T07:40:29;96486.16;;;14.95;68.95
16094;BME280;8151;47.824;12.092;2023-08-08T07:42:57;96484.34;;;15.02;68.61
16094;BME280;8151;47.824;12.092;2023-08-08T07:45:26;96481.56;;;15.10;68.60
16094;BME280;8151;47.824;12.092;2023-08-08T07:47:54;96490.22;;;15.19;68.29
16094;BME280;8151;47.824;12.092;2023-08-08T07:50:23;96476.75;;;15.27;68.46
16094;BME280;8151;47.824;12.092;2023-08-08T07:52:51;96477.63;;;15.34;68.01
16094;BME280;8151;47.824;12.092;2023-08-08T07:55:20;96470.31;;;15.43;68.08
16094;BME280;8151;47.824;12.092;2023-08-08T07:57:51;96470.34;;;15.50;67.95
16094;BME280;8151;47.824;12.092;2023-08-08T08:00:19;96473.69;;;15.59;67.73
16094;BME280;8151;47.824;12.092;2023-08-08T08:02:49;96469.38;;;15.64;67.82
16094;BME280;8151;47.824;12.092;2023-08-08T08:05:17;96470.44;;;15.70;67.22
16094;BME280;8151;47.824;12.092;2023-08-08T08:07:46;96471.94;;;15.79;67.40
16094;BME280;8151;47.824;12.092;2023-08-08T08:10:15;96463.78;;;15.87;67.14
16094;BME280;8151;47.824;12.092;2023-08-08T08:12:54;96458.91;;;15.98;66.80
16094;BME280;8151;47.824;12.092;2023-08-08T08:15:26;96446.38;;;16.05;66.59
16094;BME280;8151;47.824;12.092;2023-08-08T08:17:55;96449.72;;;16.13;66.74
16094;BME280;8151;47.824;12.092;2023-08-08T08:20:24;96445.84;;;16.23;66.69
16094;BME280;8151;47.824;12.092;2023-08-08T08:22:52;96440.50;;;16.29;66.04
16094;BME280;8151;47.824;12.092;2023-08-08T08:25:21;96436.63;;;16.39;65.88
16094;BME280;8151;47.824;12.092;2023-08-08T08:27:49;96436.63;;;16.45;65.62
16094;BME280;8151;47.824;12.092;2023-08-08T08:30:19;96428.22;;;16.55;65.46
16094;BME280;8151;47.824;12.092;2023-08-08T08:32:50;96423.31;;;16.65;65.34
16094;BME280;8151;47.824;12.092;2023-08-08T08:35:18;96424.53;;;16.76;65.10
16094;BME280;8151;47.824;12.092;2023-08-08T08:37:48;96427.84;;;16.85;64.76
16094;BME280;8151;47.824;12.092;2023-08-08T08:40:16;96421.47;;;16.92;64.52
16094;BME280;8151;47.824;12.092;2023-08-08T08:42:45;96410.97;;;17.04;64.35
16094;BME280;8151;47.824;12.092;2023-08-08T08:45:16;96410.75;;;17.12;64.25
16094;BME280;8151;47.824;12.092;2023-08-08T08:47:49;96412.19;;;17.22;64.18
16094;BME280;8151;47.824;12.092;2023-08-08T08:50:18;96409.88;;;17.32;64.17
16094;BME280;8151;47.824;12.092;2023-08-08T08:52:47;96412.31;;;17.40;63.68
16094;BME280;8151;47.824;12.092;2023-08-08T08:55:16;96416.81;;;17.46;63.16
16094;BME280;8151;47.824;12.092;2023-08-08T08:57:44;96419.31;;;17.55;62.85
16094;BME280;8151;47.824;12.092;2023-08-08T09:00:14;96414.31;;;17.65;62.49
16094;BME280;8151;47.824;12.092;2023-08-08T09:02:46;96407.47;;;17.76;62.09
16094;BME280;8151;47.824;12.092;2023-08-08T09:05:18;96400.22;;;17.83;61.72
16094;BME280;8151;47.824;12.092;2023-08-08T09:07:49;96404.34;;;17.92;61.53
16094;BME280;8151;47.824;12.092;2023-08-08T09:10:24;96395.25;;;18.00;61.30
16094;BME280;8151;47.824;12.092;2023-08-08T09:12:53;96398.72;;;18.07;60.90
16094;BME280;8151;47.824;12.092;2023-08-08T09:15:21;96398.00;;;18.18;60.41
16094;BME280;8151;47.824;12.092;2023-08-08T09:17:50;96398.38;;;18.28;60.40
16094;BME280;8151;47.824;12.092;2023-08-08T09:20:20;96394.63;;;18.36;59.96
16094;BME280;8151;47.824;12.092;2023-08-08T09:22:48;96389.00;;;18.44;59.95
16094;BME280;8151;47.824;12.092;2023-08-08T09:25:17;96386.63;;;18.55;59.71
16094;BME280;8151;47.824;12.092;2023-08-08T09:27:45;96386.59;;;18.61;59.11
16094;BME280;8151;47.824;12.092;2023-08-08T09:30:15;96381.78;;;18.70;58.70
16094;BME280;8151;47.824;12.092;2023-08-08T09:32:43;96381.31;;;18.80;58.34
16094;BME280;8151;47.824;12.092;2023-08-08T09:35:12;96380.00;;;18.89;57.99
16094;BME280;8151;47.824;12.092;2023-08-08T09:37:43;96369.66;;;18.93;57.80
16094;BME280;8151;47.824;12.092;2023-08-08T09:40:16;96373.69;;;19.02;57.71
16094;BME280;8151;47.824;12.092;2023-08-08T09:42:45;96374.81;;;19.13;57.39
16094;BME280;8151;47.824;12.092;2023-08-08T09:45:13;96372.31;;;19.18;57.26
16094;BME280;8151;47.824;12.092;2023-08-08T09:47:42;96365.44;;;19.22;57.12
16094;BME280;8151;47.824;12.092;2023-08-08T09:50:10;96362.03;;;19.33;56.48
16094;BME280;8151;47.824;12.092;2023-08-08T09:52:39;96357.69;;;19.51;55.28
16094;BME280;8151;47.824;12.092;2023-08-08T09:55:10;96351.19;;;19.58;54.58
16094;BME280;8151;47.824;12.092;2023-08-08T09:57:40;96350.94;;;19.60;54.77
16094;BME280;8151;47.824;12.092;2023-08-08T10:00:10;96352.38;;;19.62;54.68
16094;BME280;8151;47.824;12.092;2023-08-08T10:02:44;96343.44;;;19.68;54.27
16094;BME280;8151;47.824;12.092;2023-08-08T10:05:13;96342.75;;;19.73;54.36
16094;BME280;8151;47.824;12.092;2023-08-08T10:07:53;96344.47;;;19.86;53.98
16094;BME280;8151;47.824;12.092;2023-08-08T10:10:24;96342.03;;;19.96;52.50
16094;BME280;8151;47.824;12.092;2023-08-08T10:12:52;96330.97;;;20.04;51.16
16094;BME280;8151;47.824;12.092;2023-08-08T10:15:25;96331.84;;;20.17;50.07
16094;BME280;8151;47.824;12.092;2023-08-08T10:17:56;96335.25;;;20.24;48.99
16094;BME280;8151;47.824;12.092;2023-08-08T10:20:25;96328.97;;;20.30;48.04
16094;BME280;8151;47.824;12.092;2023-08-08T10:23:05;96330.22;;;20.39;47.68
16094;BME280;8151;47.824;12.092;2023-08-08T10:25:35;96324.75;;;20.46;47.22
16094;BME280;8151;47.824;12.092;2023-08-08T10:28:06;96322.81;;;20.53;47.07
16094;BME280;8151;47.824;12.092;2023-08-08T10:30:44;96321.91;;;20.59;47.26
16094;BME280;8151;47.824;12.092;2023-08-08T10:33:17;96321.75;;;20.66;47.05
16094;BME280;8151;47.824;12.092;2023-08-08T10:35:57;96317.56;;;20.70;46.49
16094;BME280;8151;47.824;12.092;2023-08-08T10:38:40;96320.50;;;20.80;46.55
16094;BME280;8151;47.824;12.092;2023-08-08T10:41:11;96314.75;;;20.89;47.02
16094;BME280;8151;47.824;12.092;2023-08-08T10:43:48;96307.97;;;20.98;45.90
16094;BME280;8151;47.824;12.092;2023-08-08T10:46:25;96309.38;;;21.00;46.34
16094;BME280;8151;47.824;12.092;2023-08-08T10:48:55;96311.69;;;21.09;46.58
16094;BME280;8151;47.824;12.092;2023-08-08T10:51:33;96310.44;;;21.11;46.43
16094;BME280;8151;47.824;12.092;2023-08-08T10:54:04;96311.00;;;21.13;46.41
16094;BME280;8151;47.824;12.092;2023-08-08T10:56:36;96303.59;;;21.20;46.15
16094;BME280;8151;47.824;12.092;2023-08-08T10:59:14;96309.69;;;21.28;46.02
16094;BME280;8151;47.824;12.092;2023-08-08T11:01:45;96312.50;;;21.33;45.94
16094;BME280;8151;47.824;12.092;2023-08-08T11:04:20;96304.59;;;21.43;45.67
16094;BME280;8151;47.824;12.092;2023-08-08T11:06:52;96308.59;;;21.52;44.97
16094;BME280;8151;47.824;12.092;2023-08-08T11:09:21;96313.50;;;21.55;44.68
16094;BME280;8151;47.824;12.092;2023-08-08T11:11:51;96308.94;;;21.56;44.81
16094;BME280;8151;47.824;12.092;2023-08-08T11:14:21;96310.09;;;21.60;44.81
16094;BME280;8151;47.824;12.092;2023-08-08T11:16:51;96295.91;;;21.65;44.75
16094;BME280;8151;47.824;12.092;2023-08-08T11:19:20;96300.66;;;21.74;45.02
16094;BME280;8151;47.824;12.092;2023-08-08T11:21:50;96307.88;;;21.86;45.17
16094;BME280;8151;47.824;12.092;2023-08-08T11:24:18;96304.22;;;21.92;45.04
16094;BME280;8151;47.824;12.092;2023-08-08T11:26:47;96303.09;;;22.05;44.83
16094;BME280;8151;47.824;12.092;2023-08-08T11:29:17;96301.91;;;22.12;44.85
16094;BME280;8151;47.824;12.092;2023-08-08T11:31:48;96300.34;;;22.16;44.47
16094;BME280;8151;47.824;12.092;2023-08-08T11:34:16;96305.16;;;22.14;44.46
16094;BME280;8151;47.824;12.092;2023-08-08T11:36:46;96296.75;;;22.11;44.23
16094;BME280;8151;47.824;12.092;2023-08-08T11:39:15;96294.28;;;22.09;43.92
16094;BME280;8151;47.824;12.092;2023-08-08T11:41:44;96291.75;;;22.19;44.17
16094;BME280;8151;47.824;12.092;2023-08-08T11:44:14;96290.44;;;22.34;44.27
16094;BME280;8151;47.824;12.092;2023-08-08T11:46:47;96279.31;;;22.47;44.06
16094;BME280;8151;47.824;12.092;2023-08-08T11:49:16;96273.75;;;22.54;43.70
16094;BME280;8151;47.824;12.092;2023-08-08T11:51:46;96284.09;;;22.62;43.07
16094;BME280;8151;47.824;12.092;2023-08-08T11:54:15;96274.16;;;22.63;42.54
16094;BME280;8151;47.824;12.092;2023-08-08T11:56:44;96280.94;;;22.65;42.46
16094;BME280;8151;47.824;12.092;2023-08-08T11:59:12;96271.59;;;22.73;42.29
16094;BME280;8151;47.824;12.092;2023-08-08T12:01:41;96270.69;;;22.84;42.16
16094;BME280;8151;47.824;12.092;2023-08-08T12:04:11;96264.78;;;22.87;41.55
16094;BME280;8151;47.824;12.092;2023-08-08T12:06:40;96268.03;;;22.89;41.59
16094;BME280;8151;47.824;12.092;2023-08-08T12:09:11;96269.13;;;22.88;41.89
16094;BME280;8151;47.824;12.092;2023-08-08T12:11:45;96269.38;;;22.87;42.17
16094;BME280;8151;47.824;12.092;2023-08-08T12:14:14;96263.28;;;22.96;42.05
16094;BME280;8151;47.824;12.092;2023-08-08T12:16:42;96265.91;;;23.08;42.44
16094;BME280;8151;47.824;12.092;2023-08-08T12:19:13;96260.13;;;23.22;42.46
16094;BME280;8151;47.824;12.092;2023-08-08T12:21:44;96265.09;;;23.30;41.96
16094;BME280;8151;47.824;12.092;2023-08-08T12:24:13;96255.38;;;23.29;42.01
16094;BME280;8151;47.824;12.092;2023-08-08T12:26:42;96262.69;;;23.33;41.96
16094;BME280;8151;47.824;12.092;2023-08-08T12:29:10;96259.19;;;23.33;41.59
16094;BME280;8151;47.824;12.092;2023-08-08T12:31:40;96262.22;;;23.36;41.77
16094;BME280;8151;47.824;12.092;2023-08-08T12:34:08;96260.06;;;23.38;41.56
16094;BME280;8151;47.824;12.092;2023-08-08T12:36:38;96264.06;;;23.36;41.06
16094;BME280;8151;47.824;12.092;2023-08-08T12:39:07;96259.81;;;23.40;40.88
16094;BME280;8151;47.824;12.092;2023-08-08T12:41:38;96258.50;;;23.43;40.81
16094;BME280;8151;47.824;12.092;2023-08-08T12:44:07;96247.94;;;23.41;40.64
16094;BME280;8151;47.824;12.092;2023-08-08T12:46:35;96245.06;;;23.48;40.71
16094;BME280;8151;47.824;12.092;2023-08-08T12:49:04;96245.19;;;23.63;40.08
16094;BME280;8151;47.824;12.092;2023-08-08T12:51:32;96246.34;;;23.67;40.09
16094;BME280;8151;47.824;12.092;2023-08-08T12:54:02;96245.78;;;23.65;39.51
16094;BME280;8151;47.824;12.092;2023-08-08T12:56:31;96252.25;;;23.64;40.08
16094;BME280;8151;47.824;12.092;2023-08-08T12:58:59;96244.69;;;23.66;39.82
16094;BME280;8151;47.824;12.092;2023-08-08T13:01:30;96243.38;;;23.69;39.47
16094;BME280;8151;47.824;12.092;2023-08-08T13:03:58;96245.78;;;23.65;39.22
16094;BME280;8151;47.824;12.092;2023-08-08T13:06:45;96243.53;;;23.57;38.70
16094;BME280;8151;47.824;12.092;2023-08-08T13:09:15;96245.09;;;23.53;38.33
16094;BME280;8151;47.824;12.092;2023-08-08T13:11:51;96257.03;;;23.57;38.68